sensor_id;sensor_type;location;lat;lon;timestamp;P1;durP1;ratioP1;P2;durP2;ratioP2
8803;SDS011;4438;50.890;4.726;2023-08-01T00:02:11;2.23;;;1.80;;
8803;SDS011;4438;50.890;4.726;2023-08-01T00:04:37;1.70;;;1.60;;
8803;SDS011;4438;50.890;4.726;2023-08-01T00:07:03;1.73;;;1.60;;
8803;SDS011;4438;50.890;4.726;2023-08-01T00:09:29;2.07;;;1.80;;
8803;SDS011;4438;50.890;4.726;2023-08-01T00:11:55;2.10;;;1.90;;
8803;SDS011;4438;50.890;4.726;2023-08-01T00:14:21;2.20;;;2.00;;
8803;SDS011;4438;50.890;4.726;2023-08-01T00:16:52;2.23;;;1.90;;
8803;SDS011;4438;50.890;4.726;2023-08-01T00:19:18;2.07;;;1.80;;
8803;SDS011;4438;50.890;4.726;2023-08-01T00:21:44;2.20;;;1.90;;
8803;SDS011;4438;50.890;4.726;2023-08-01T00:24:12;3.00;;;2.00;;
8803;SDS011;4438;50.890;4.726;2023-08-01T00:26:39;2.80;;;1.90;;
8803;SDS011;4438;50.890;4.726;2023-08-01T00:29:05;2.47;;;2.27;;
8803;SDS011;4438;50.890;4.726;2023-08-01T00:31:31;2.60;;;1.90;;
8803;SDS011;4438;50.890;4.726;2023-08-01T00:33:57;2.60;;;2.27;;
8803;SDS011;4438;50.890;4.726;2023-08-01T00:36:23;2.30;;;2.10;;
8803;SDS011;4438;50.890;4.726;2023-08-01T00:38:49;2.50;;;2.30;;
8803;SDS011;4438;50.890;4.726;2023-08-01T00:41:15;3.00;;;2.43;;
8803;SDS011;4438;50.890;4.726;2023-08-01T00:43:41;3.10;;;2.77;;
8803;SDS011;4438;50.890;4.726;2023-08-01T00:46:07;3.53;;;2.60;;
8803;SDS011;4438;50.890;4.726;2023-08-01T00:48:34;3.77;;;2.40;;
8803;SDS011;4438;50.890;4.726;2023-08-01T00:51:03;3.53;;;2.50;;
8803;SDS011;4438;50.890;4.726;2023-08-01T00:53:30;2.70;;;2.50;;
8803;SDS011;4438;50.890;4.726;2023-08-01T00:55:56;3.23;;;2.50;;
8803;SDS011;4438;50.890;4.726;2023-08-01T00:58:22;4.63;;;2.60;;
8803;SDS011;4438;50.890;4.726;2023-08-01T01:00:49;3.40;;;2.60;;
8803;SDS011;4438;50.890;4.726;2023-08-01T01:03:15;3.00;;;2.70;;
8803;SDS011;4438;50.890;4.726;2023-08-01T01:05:53;3.93;;;2.70;;
8803;SDS011;4438;50.890;4.726;2023-08-01T01:08:19;3.20;;;2.90;;
8803;SDS011;4438;50.890;4.726;2023-08-01T01:10:45;4.67;;;3.30;;
8803;SDS011;4438;50.890;4.726;2023-08-01T01:13:11;3.30;;;3.00;;
8803;SDS011;4438;50.890;4.726;2023-08-01T01:15:38;5.30;;;3.30;;
8803;SDS011;4438;50.890;4.726;2023-08-01T01:18:04;4.33;;;3.00;;
8803;SDS011;4438;50.890;4.726;2023-08-01T01:20:34;5.33;;;3.10;;
8803;SDS011;4438;50.890;4.726;2023-08-01T01:23:00;3.83;;;3.10;;
8803;SDS011;4438;50.890;4.726;2023-08-01T01:25:28;3.90;;;2.90;;
8803;SDS011;4438;50.890;4.726;2023-08-01T01:27:55;4.57;;;3.37;;
8803;SDS011;4438;50.890;4.726;2023-08-01T01:30:22;4.33;;;3.40;;
8803;SDS011;4438;50.890;4.726;2023-08-01T01:32:49;5.03;;;3.50;;
8803;SDS011;4438;50.890;4.726;2023-08-01T01:35:15;5.30;;;4.13;;
8803;SDS011;4438;50.890;4.726;2023-08-01T01:37:41;3.80;;;3.50;;
8803;SDS011;4438;50.890;4.726;2023-08-01T01:40:07;4.47;;;4.07;;
8803;SDS011;4438;50.890;4.726;2023-08-01T01:42:33;5.47;;;4.30;;
8803;SDS011;4438;50.890;4.726;2023-08-01T01:44:59;6.63;;;4.43;;
8803;SDS011;4438;50.890;4.726;2023-08-01T01:47:26;4.43;;;4.00;;
8803;SDS011;4438;50.890;4.726;2023-08-01T01:49:52;5.90;;;4.00;;
8803;SDS011;4438;50.890;4.726;2023-08-01T01:52:18;6.00;;;4.50;;
8803;SDS011;4438;50.890;4.726;2023-08-01T01:54:44;5.10;;;3.97;;
8803;SDS011;4438;50.890;4.726;2023-08-01T01:57:10;5.03;;;4.53;;
8803;SDS011;4438;50.890;4.726;2023-08-01T01:59:36;5.73;;;4.10;;
8803;SDS011;4438;50.890;4.726;2023-08-01T02:02:02;5.67;;;4.40;;
8803;SDS011;4438;50.890;4.726;2023-08-01T02:04:29;6.47;;;4.63;;
8803;SDS011;4438;50.890;4.726;2023-08-01T02:06:55;7.60;;;5.00;;
8803;SDS011;4438;50.890;4.726;2023-08-01T02:09:21;5.57;;;4.60;;
8803;SDS011;4438;50.890;4.726;2023-08-01T02:11:47;5.83;;;4.70;;
8803;SDS011;4438;50.890;4.726;2023-08-01T02:14:13;6.07;;;4.80;;
8803;SDS011;4438;50.890;4.726;2023-08-01T02:16:40;7.07;;;5.20;;
8803;SDS011;4438;50.890;4.726;2023-08-01T02:19:06;7.33;;;4.60;;
8803;SDS011;4438;50.890;4.726;2023-08-01T02:21:32;6.60;;;4.53;;
8803;SDS011;4438;50.890;4.726;2023-08-01T02:23:58;5.37;;;4.50;;
8803;SDS011;4438;50.890;4.726;2023-08-01T02:26:24;6.80;;;5.20;;
8803;SDS011;4438;50.890;4.726;2023-08-01T02:28:50;6.27;;;4.70;;
8803;SDS011;4438;50.890;4.726;2023-08-01T02:31:17;5.10;;;4.57;;
8803;SDS011;4438;50.890;4.726;2023-08-01T02:33:43;7.77;;;4.90;;
8803;SDS011;4438;50.890;4.726;2023-08-01T02:36:09;6.23;;;4.63;;
8803;SDS011;4438;50.890;4.726;2023-08-01T02:38:35;4.97;;;4.43;;
8803;SDS011;4438;50.890;4.726;2023-08-01T02:41:01;5.93;;;4.60;;
8803;SDS011;4438;50.890;4.726;2023-08-01T02:43:27;8.27;;;4.80;;
8803;SDS011;4438;50.890;4.726;2023-08-01T02:45:53;5.47;;;4.50;;
8803;SDS011;4438;50.890;4.726;2023-08-01T02:48:19;7.57;;;5.20;;
8803;SDS011;4438;50.890;4.726;2023-08-01T02:50:45;8.30;;;5.07;;
8803;SDS011;4438;50.890;4.726;2023-08-01T02:53:11;9.80;;;5.73;;
8803;SDS011;4438;50.890;4.726;2023-08-01T02:55:37;7.23;;;5.33;;
8803;SDS011;4438;50.890;4.726;2023-08-01T02:58:04;9.70;;;5.77;;
8803;SDS011;4438;50.890;4.726;2023-08-01T03:00:30;6.00;;;5.40;;
8803;SDS011;4438;50.890;4.726;2023-08-01T03:02:57;7.70;;;6.00;;
8803;SDS011;4438;50.890;4.726;2023-08-01T03:05:23;8.17;;;6.00;;
8803;SDS011;4438;50.890;4.726;2023-08-01T03:07:49;7.07;;;6.00;;
8803;SDS011;4438;50.890;4.726;2023-08-01T03:10:15;9.90;;;6.30;;
8803;SDS011;4438;50.890;4.726;2023-08-01T03:12:41;6.90;;;6.07;;
8803;SDS011;4438;50.890;4.726;2023-08-01T03:15:07;7.60;;;6.40;;
8803;SDS011;4438;50.890;4.726;2023-08-01T03:17:34;6.80;;;6.07;;
8803;SDS011;4438;50.890;4.726;2023-08-01T03:20:00;6.87;;;5.97;;
8803;SDS011;4438;50.890;4.726;2023-08-01T03:22:26;8.30;;;6.17;;
8803;SDS011;4438;50.890;4.726;2023-08-01T03:24:52;8.53;;;6.47;;
8803;SDS011;4438;50.890;4.726;2023-08-01T03:27:18;8.60;;;6.23;;
8803;SDS011;4438;50.890;4.726;2023-08-01T03:29:44;8.43;;;6.70;;
8803;SDS011;4438;50.890;4.726;2023-08-01T03:32:10;9.33;;;6.70;;
8803;SDS011;4438;50.890;4.726;2023-08-01T03:34:36;10.37;;;6.30;;
8803;SDS011;4438;50.890;4.726;2023-08-01T03:37:04;8.60;;;6.10;;
8803;SDS011;4438;50.890;4.726;2023-08-01T03:39:30;9.33;;;6.40;;
8803;SDS011;4438;50.890;4.726;2023-08-01T03:41:56;10.13;;;6.37;;
8803;SDS011;4438;50.890;4.726;2023-08-01T03:44:22;8.17;;;6.10;;
8803;SDS011;4438;50.890;4.726;2023-08-01T03:46:48;10.97;;;6.50;;
8803;SDS011;4438;50.890;4.726;2023-08-01T03:49:14;8.70;;;6.40;;
8803;SDS011;4438;50.890;4.726;2023-08-01T03:51:40;9.13;;;6.77;;
8803;SDS011;4438;50.890;4.726;2023-08-01T03:54:06;8.60;;;6.90;;
8803;SDS011;4438;50.890;4.726;2023-08-01T03:56:32;8.83;;;6.47;;
8803;SDS011;4438;50.890;4.726;2023-08-01T03:58:59;9.63;;;6.70;;
8803;SDS011;4438;50.890;4.726;2023-08-01T04:01:25;9.00;;;6.80;;
8803;SDS011;4438;50.890;4.726;2023-08-01T04:03:51;8.97;;;7.07;;
8803;SDS011;4438;50.890;4.726;2023-08-01T04:06:17;10.53;;;6.33;;
8803;SDS011;4438;50.890;4.726;2023-08-01T04:08:43;10.97;;;6.57;;
8803;SDS011;4438;50.890;4.726;2023-08-01T04:11:09;8.80;;;6.63;;
8803;SDS011;4438;50.890;4.726;2023-08-01T04:13:36;9.77;;;7.00;;
8803;SDS011;4438;50.890;4.726;2023-08-01T04:16:02;10.30;;;6.70;;
8803;SDS011;4438;50.890;4.726;2023-08-01T04:18:28;7.40;;;6.33;;
8803;SDS011;4438;50.890;4.726;2023-08-01T04:20:54;10.20;;;6.50;;
8803;SDS011;4438;50.890;4.726;2023-08-01T04:23:20;9.27;;;7.03;;
8803;SDS011;4438;50.890;4.726;2023-08-01T04:25:46;9.20;;;7.00;;
8803;SDS011;4438;50.890;4.726;2023-08-01T04:28:12;9.00;;;6.87;;
8803;SDS011;4438;50.890;4.726;2023-08-01T04:30:39;8.43;;;6.53;;
8803;SDS011;4438;50.890;4.726;2023-08-01T04:33:05;9.40;;;6.73;;
8803;SDS011;4438;50.890;4.726;2023-08-01T04:35:31;8.10;;;6.63;;
8803;SDS011;4438;50.890;4.726;2023-08-01T04:37:57;8.63;;;6.33;;
8803;SDS011;4438;50.890;4.726;2023-08-01T04:40:23;10.40;;;6.80;;
8803;SDS011;4438;50.890;4.726;2023-08-01T04:42:49;8.17;;;6.17;;
8803;SDS011;4438;50.890;4.726;2023-08-01T04:45:15;11.47;;;7.07;;
8803;SDS011;4438;50.890;4.726;2023-08-01T04:47:41;13.10;;;7.50;;
8803;SDS011;4438;50.890;4.726;2023-08-01T04:50:07;9.90;;;7.53;;
8803;SDS011;4438;50.890;4.726;2023-08-01T04:52:33;11.87;;;7.87;;
8803;SDS011;4438;50.890;4.726;2023-08-01T04:54:59;14.27;;;8.03;;
8803;SDS011;4438;50.890;4.726;2023-08-01T04:57:25;11.47;;;7.77;;
8803;SDS011;4438;50.890;4.726;2023-08-01T04:59:51;11.23;;;8.33;;
8803;SDS011;4438;50.890;4.726;2023-08-01T05:02:17;12.60;;;8.23;;
8803;SDS011;4438;50.890;4.726;2023-08-01T05:04:43;10.23;;;8.43;;
8803;SDS011;4438;50.890;4.726;2023-08-01T05:07:09;11.90;;;8.13;;
8803;SDS011;4438;50.890;4.726;2023-08-01T05:09:36;11.67;;;8.60;;
8803;SDS011;4438;50.890;4.726;2023-08-01T05:12:02;11.87;;;8.57;;
8803;SDS011;4438;50.890;4.726;2023-08-01T05:14:28;13.03;;;8.20;;
8803;SDS011;4438;50.890;4.726;2023-08-01T05:16:54;9.77;;;8.30;;
8803;SDS011;4438;50.890;4.726;2023-08-01T05:19:20;10.93;;;8.73;;
8803;SDS011;4438;50.890;4.726;2023-08-01T05:21:46;13.67;;;8.50;;
8803;SDS011;4438;50.890;4.726;2023-08-01T05:24:12;11.60;;;8.90;;
8803;SDS011;4438;50.890;4.726;2023-08-01T05:26:38;11.03;;;7.73;;
8803;SDS011;4438;50.890;4.726;2023-08-01T05:29:04;10.73;;;8.17;;
8803;SDS011;4438;50.890;4.726;2023-08-01T05:31:30;12.70;;;7.97;;
8803;SDS011;4438;50.890;4.726;2023-08-01T05:33:56;11.87;;;8.43;;
8803;SDS011;4438;50.890;4.726;2023-08-01T05:36:22;10.77;;;8.37;;
8803;SDS011;4438;50.890;4.726;2023-08-01T05:38:48;11.77;;;8.67;;
8803;SDS011;4438;50.890;4.726;2023-08-01T05:41:14;14.67;;;8.50;;
8803;SDS011;4438;50.890;4.726;2023-08-01T05:43:40;9.47;;;7.77;;
8803;SDS011;4438;50.890;4.726;2023-08-01T05:46:07;11.03;;;7.73;;
8803;SDS011;4438;50.890;4.726;2023-08-01T05:48:33;12.17;;;7.67;;
8803;SDS011;4438;50.890;4.726;2023-08-01T05:50:59;11.77;;;7.97;;
8803;SDS011;4438;50.890;4.726;2023-08-01T05:53:25;10.47;;;7.10;;
8803;SDS011;4438;50.890;4.726;2023-08-01T05:55:52;10.63;;;7.20;;
8803;SDS011;4438;50.890;4.726;2023-08-01T05:58:18;11.33;;;7.30;;
8803;SDS011;4438;50.890;4.726;2023-08-01T06:00:44;11.40;;;7.57;;
8803;SDS011;4438;50.890;4.726;2023-08-01T06:03:10;11.07;;;7.30;;
8803;SDS011;4438;50.890;4.726;2023-08-01T06:05:36;10.27;;;7.27;;
8803;SDS011;4438;50.890;4.726;2023-08-01T06:08:03;10.50;;;7.30;;
8803;SDS011;4438;50.890;4.726;2023-08-01T06:10:29;11.50;;;7.57;;
8803;SDS011;4438;50.890;4.726;2023-08-01T06:12:55;10.80;;;7.03;;
8803;SDS011;4438;50.890;4.726;2023-08-01T06:15:21;12.43;;;8.60;;
8803;SDS011;4438;50.890;4.726;2023-08-01T06:17:47;10.23;;;8.20;;
8803;SDS011;4438;50.890;4.726;2023-08-01T06:20:13;12.17;;;8.87;;
8803;SDS011;4438;50.890;4.726;2023-08-01T06:22:41;10.37;;;7.27;;
8803;SDS011;4438;50.890;4.726;2023-08-01T06:25:08;10.73;;;7.80;;
8803;SDS011;4438;50.890;4.726;2023-08-01T06:27:37;9.37;;;7.40;;
8803;SDS011;4438;50.890;4.726;2023-08-01T06:30:04;8.43;;;7.13;;
8803;SDS011;4438;50.890;4.726;2023-08-01T06:32:31;11.00;;;7.93;;
8803;SDS011;4438;50.890;4.726;2023-08-01T06:34:57;12.90;;;7.60;;
8803;SDS011;4438;50.890;4.726;2023-08-01T06:37:23;11.17;;;7.90;;
8803;SDS011;4438;50.890;4.726;2023-08-01T06:39:49;10.87;;;7.50;;
8803;SDS011;4438;50.890;4.726;2023-08-01T06:42:15;11.60;;;7.80;;
8803;SDS011;4438;50.890;4.726;2023-08-01T06:44:41;8.60;;;6.33;;
8803;SDS011;4438;50.890;4.726;2023-08-01T06:47:07;8.50;;;7.10;;
8803;SDS011;4438;50.890;4.726;2023-08-01T06:49:33;10.30;;;6.93;;
8803;SDS011;4438;50.890;4.726;2023-08-01T06:51:59;8.17;;;7.10;;
8803;SDS011;4438;50.890;4.726;2023-08-01T06:54:25;12.43;;;7.17;;
8803;SDS011;4438;50.890;4.726;2023-08-01T06:56:51;9.53;;;7.00;;
8803;SDS011;4438;50.890;4.726;2023-08-01T06:59:17;9.83;;;7.40;;
8803;SDS011;4438;50.890;4.726;2023-08-01T07:01:43;10.87;;;7.57;;
8803;SDS011;4438;50.890;4.726;2023-08-01T07:04:10;11.27;;;7.70;;
8803;SDS011;4438;50.890;4.726;2023-08-01T07:06:36;10.30;;;8.00;;
8803;SDS011;4438;50.890;4.726;2023-08-01T07:09:02;9.37;;;7.50;;
8803;SDS011;4438;50.890;4.726;2023-08-01T07:11:28;11.10;;;8.30;;
8803;SDS011;4438;50.890;4.726;2023-08-01T07:13:54;10.07;;;7.87;;
8803;SDS011;4438;50.890;4.726;2023-08-01T07:16:20;11.67;;;8.33;;
8803;SDS011;4438;50.890;4.726;2023-08-01T07:18:46;11.50;;;7.50;;
8803;SDS011;4438;50.890;4.726;2023-08-01T07:21:13;11.50;;;7.27;;
8803;SDS011;4438;50.890;4.726;2023-08-01T07:23:39;10.67;;;7.13;;
8803;SDS011;4438;50.890;4.726;2023-08-01T07:26:06;10.53;;;7.47;;
8803;SDS011;4438;50.890;4.726;2023-08-01T07:28:32;9.10;;;6.70;;
8803;SDS011;4438;50.890;4.726;2023-08-01T07:31:02;7.13;;;6.40;;
8803;SDS011;4438;50.890;4.726;2023-08-01T07:33:29;9.17;;;6.50;;
8803;SDS011;4438;50.890;4.726;2023-08-01T07:35:55;7.00;;;6.30;;
8803;SDS011;4438;50.890;4.726;2023-08-01T07:38:21;7.47;;;6.20;;
8803;SDS011;4438;50.890;4.726;2023-08-01T07:40:48;7.77;;;6.00;;
8803;SDS011;4438;50.890;4.726;2023-08-01T07:43:14;8.27;;;6.23;;
8803;SDS011;4438;50.890;4.726;2023-08-01T07:45:40;9.17;;;6.00;;
8803;SDS011;4438;50.890;4.726;2023-08-01T07:48:06;6.93;;;5.40;;
8803;SDS011;4438;50.890;4.726;2023-08-01T07:50:32;7.47;;;5.37;;
8803;SDS011;4438;50.890;4.726;2023-08-01T07:52:58;8.70;;;5.70;;
8803;SDS011;4438;50.890;4.726;2023-08-01T07:55:25;9.07;;;5.57;;
8803;SDS011;4438;50.890;4.726;2023-08-01T07:57:51;8.00;;;5.40;;
8803;SDS011;4438;50.890;4.726;2023-08-01T08:00:17;7.63;;;5.23;;
8803;SDS011;4438;50.890;4.726;2023-08-01T08:02:44;8.27;;;5.30;;
8803;SDS011;4438;50.890;4.726;2023-08-01T08:05:10;8.20;;;5.30;;
8803;SDS011;4438;50.890;4.726;2023-08-01T08:07:36;7.90;;;5.67;;
8803;SDS011;4438;50.890;4.726;2023-08-01T08:10:03;7.50;;;5.00;;
8803;SDS011;4438;50.890;4.726;2023-08-01T08:12:29;8.50;;;5.60;;
8803;SDS011;4438;50.890;4.726;2023-08-01T08:14:55;7.30;;;5.57;;
8803;SDS011;4438;50.890;4.726;2023-08-01T08:17:22;8.13;;;5.40;;
8803;SDS011;4438;50.890;4.726;2023-08-01T08:19:48;8.13;;;6.13;;
8803;SDS011;4438;50.890;4.726;2023-08-01T08:22:14;6.70;;;5.50;;
8803;SDS011;4438;50.890;4.726;2023-08-01T08:24:40;8.60;;;5.47;;
8803;SDS011;4438;50.890;4.726;2023-08-01T08:27:06;8.97;;;5.53;;
8803;SDS011;4438;50.890;4.726;2023-08-01T08:29:32;7.57;;;5.80;;
8803;SDS011;4438;50.890;4.726;2023-08-01T08:31:59;8.20;;;6.03;;
8803;SDS011;4438;50.890;4.726;2023-08-01T08:34:25;7.57;;;5.73;;
8803;SDS011;4438;50.890;4.726;2023-08-01T08:36:51;7.80;;;6.23;;
8803;SDS011;4438;50.890;4.726;2023-08-01T08:39:17;8.40;;;6.30;;
8803;SDS011;4438;50.890;4.726;2023-08-01T08:41:48;8.33;;;6.20;;
8803;SDS011;4438;50.890;4.726;2023-08-01T08:44:15;9.03;;;5.83;;
8803;SDS011;4438;50.890;4.726;2023-08-01T08:46:51;6.27;;;4.53;;
8803;SDS011;4438;50.890;4.726;2023-08-01T08:49:18;7.43;;;4.50;;
8803;SDS011;4438;50.890;4.726;2023-08-01T08:51:46;6.87;;;4.70;;
8803;SDS011;4438;50.890;4.726;2023-08-01T08:54:13;8.70;;;4.90;;
8803;SDS011;4438;50.890;4.726;2023-08-01T08:56:39;6.60;;;4.53;;
8803;SDS011;4438;50.890;4.726;2023-08-01T08:59:06;7.67;;;4.50;;
8803;SDS011;4438;50.890;4.726;2023-08-01T09:01:33;7.10;;;4.23;;
8803;SDS011;4438;50.890;4.726;2023-08-01T09:03:59;6.90;;;4.17;;
8803;SDS011;4438;50.890;4.726;2023-08-01T09:06:28;7.00;;;4.20;;
8803;SDS011;4438;50.890;4.726;2023-08-01T09:08:56;6.67;;;4.10;;
8803;SDS011;4438;50.890;4.726;2023-08-01T09:11:27;7.50;;;4.27;;
8803;SDS011;4438;50.890;4.726;2023-08-01T09:13:53;6.10;;;4.00;;
8803;SDS011;4438;50.890;4.726;2023-08-01T09:16:19;5.60;;;3.57;;
8803;SDS011;4438;50.890;4.726;2023-08-01T09:18:46;8.07;;;3.90;;
8803;SDS011;4438;50.890;4.726;2023-08-01T09:21:12;5.63;;;3.50;;
8803;SDS011;4438;50.890;4.726;2023-08-01T09:23:38;4.80;;;3.40;;
8803;SDS011;4438;50.890;4.726;2023-08-01T09:26:14;6.60;;;3.90;;
8803;SDS011;4438;50.890;4.726;2023-08-01T09:28:40;3.70;;;2.80;;
8803;SDS011;4438;50.890;4.726;2023-08-01T09:31:06;4.60;;;3.40;;
8803;SDS011;4438;50.890;4.726;2023-08-01T09:33:42;5.20;;;3.10;;
8803;SDS011;4438;50.890;4.726;2023-08-01T09:36:08;4.97;;;3.10;;
8803;SDS011;4438;50.890;4.726;2023-08-01T09:38:35;5.50;;;3.00;;
8803;SDS011;4438;50.890;4.726;2023-08-01T09:41:01;3.73;;;2.67;;
8803;SDS011;4438;50.890;4.726;2023-08-01T09:43:33;5.70;;;3.20;;
8803;SDS011;4438;50.890;4.726;2023-08-01T09:46:02;4.87;;;3.10;;
8803;SDS011;4438;50.890;4.726;2023-08-01T09:48:29;5.10;;;2.80;;
8803;SDS011;4438;50.890;4.726;2023-08-01T09:53:34;5.70;;;3.00;;
8803;SDS011;4438;50.890;4.726;2023-08-01T09:56:01;4.53;;;3.10;;
8803;SDS011;4438;50.890;4.726;2023-08-01T09:58:33;4.43;;;3.30;;
8803;SDS011;4438;50.890;4.726;2023-08-01T10:01:00;6.77;;;3.70;;
8803;SDS011;4438;50.890;4.726;2023-08-01T10:03:27;6.40;;;3.27;;
8803;SDS011;4438;50.890;4.726;2023-08-01T10:05:53;5.17;;;3.10;;
8803;SDS011;4438;50.890;4.726;2023-08-01T10:08:21;6.07;;;3.07;;
8803;SDS011;4438;50.890;4.726;2023-08-01T10:10:48;5.13;;;3.27;;
8803;SDS011;4438;50.890;4.726;2023-08-01T10:13:14;3.80;;;2.63;;
8803;SDS011;4438;50.890;4.726;2023-08-01T10:15:40;4.30;;;2.70;;
8803;SDS011;4438;50.890;4.726;2023-08-01T10:18:07;3.80;;;2.67;;
8803;SDS011;4438;50.890;4.726;2023-08-01T10:20:35;4.70;;;2.80;;
8803;SDS011;4438;50.890;4.726;2023-08-01T10:23:01;5.60;;;3.30;;
8803;SDS011;4438;50.890;4.726;2023-08-01T10:25:29;3.83;;;3.00;;
8803;SDS011;4438;50.890;4.726;2023-08-01T10:28:01;3.77;;;3.20;;
8803;SDS011;4438;50.890;4.726;2023-08-01T10:30:28;4.87;;;3.53;;
8803;SDS011;4438;50.890;4.726;2023-08-01T10:32:58;5.67;;;3.67;;
8803;SDS011;4438;50.890;4.726;2023-08-01T10:38:06;4.30;;;3.50;;
8803;SDS011;4438;50.890;4.726;2023-08-01T10:40:34;4.07;;;3.30;;
8803;SDS011;4438;50.890;4.726;2023-08-01T10:43:00;5.37;;;3.63;;
8803;SDS011;4438;50.890;4.726;2023-08-01T10:45:26;6.37;;;3.43;;
8803;SDS011;4438;50.890;4.726;2023-08-01T10:47:53;5.60;;;3.60;;
8803;SDS011;4438;50.890;4.726;2023-08-01T10:50:20;4.70;;;3.43;;
8803;SDS011;4438;50.890;4.726;2023-08-01T10:52:46;4.83;;;3.57;;
8803;SDS011;4438;50.890;4.726;2023-08-01T10:55:12;4.97;;;3.03;;
8803;SDS011;4438;50.890;4.726;2023-08-01T10:57:39;5.57;;;3.83;;
8803;SDS011;4438;50.890;4.726;2023-08-01T11:00:05;4.77;;;3.23;;
8803;SDS011;4438;50.890;4.726;2023-08-01T11:02:35;3.80;;;3.30;;
8803;SDS011;4438;50.890;4.726;2023-08-01T11:05:02;4.37;;;3.00;;
8803;SDS011;4438;50.890;4.726;2023-08-01T11:07:28;3.97;;;3.00;;
8803;SDS011;4438;50.890;4.726;2023-08-01T11:10:05;6.80;;;3.10;;
8803;SDS011;4438;50.890;4.726;2023-08-01T11:12:38;4.60;;;3.00;;
8803;SDS011;4438;50.890;4.726;2023-08-01T11:15:05;4.30;;;2.90;;
8803;SDS011;4438;50.890;4.726;2023-08-01T11:17:33;4.43;;;3.10;;
8803;SDS011;4438;50.890;4.726;2023-08-01T11:22:29;3.63;;;2.63;;
8803;SDS011;4438;50.890;4.726;2023-08-01T11:24:55;5.57;;;3.10;;
8803;SDS011;4438;50.890;4.726;2023-08-01T11:27:21;4.87;;;2.80;;
8803;SDS011;4438;50.890;4.726;2023-08-01T11:29:47;3.93;;;2.80;;
8803;SDS011;4438;50.890;4.726;2023-08-01T11:32:13;4.43;;;2.80;;
8803;SDS011;4438;50.890;4.726;2023-08-01T11:34:40;4.83;;;2.60;;
8803;SDS011;4438;50.890;4.726;2023-08-01T11:37:06;4.63;;;2.60;;
8803;SDS011;4438;50.890;4.726;2023-08-01T11:39:32;5.10;;;2.80;;
8803;SDS011;4438;50.890;4.726;2023-08-01T11:41:59;4.73;;;2.67;;
8803;SDS011;4438;50.890;4.726;2023-08-01T11:44:25;3.73;;;2.37;;
8803;SDS011;4438;50.890;4.726;2023-08-01T11:46:51;5.23;;;2.70;;
8803;SDS011;4438;50.890;4.726;2023-08-01T11:49:18;4.17;;;2.43;;
8803;SDS011;4438;50.890;4.726;2023-08-01T11:51:44;5.63;;;3.20;;
8803;SDS011;4438;50.890;4.726;2023-08-01T11:54:11;4.50;;;2.90;;
8803;SDS011;4438;50.890;4.726;2023-08-01T11:56:38;4.33;;;3.13;;
8803;SDS011;4438;50.890;4.726;2023-08-01T11:59:23;4.27;;;3.00;;
8803;SDS011;4438;50.890;4.726;2023-08-01T12:01:49;5.30;;;3.40;;
8803;SDS011;4438;50.890;4.726;2023-08-01T12:04:27;4.07;;;3.23;;
8803;SDS011;4438;50.890;4.726;2023-08-01T12:06:54;5.13;;;2.90;;
8803;SDS011;4438;50.890;4.726;2023-08-01T12:09:21;5.83;;;3.30;;
8803;SDS011;4438;50.890;4.726;2023-08-01T12:11:47;4.00;;;2.77;;
8803;SDS011;4438;50.890;4.726;2023-08-01T12:14:24;4.00;;;3.30;;
8803;SDS011;4438;50.890;4.726;2023-08-01T12:16:50;6.03;;;2.80;;
8803;SDS011;4438;50.890;4.726;2023-08-01T12:19:17;4.20;;;2.90;;
8803;SDS011;4438;50.890;4.726;2023-08-01T12:21:44;5.13;;;3.40;;
8803;SDS011;4438;50.890;4.726;2023-08-01T12:24:10;6.03;;;3.10;;
8803;SDS011;4438;50.890;4.726;2023-08-01T12:26:37;3.77;;;2.70;;
8803;SDS011;4438;50.890;4.726;2023-08-01T12:29:03;4.40;;;2.70;;
8803;SDS011;4438;50.890;4.726;2023-08-01T12:31:29;5.17;;;2.80;;
8803;SDS011;4438;50.890;4.726;2023-08-01T12:33:56;4.80;;;2.50;;
8803;SDS011;4438;50.890;4.726;2023-08-01T12:36:22;4.63;;;3.07;;
8803;SDS011;4438;50.890;4.726;2023-08-01T12:38:48;2.70;;;2.50;;
8803;SDS011;4438;50.890;4.726;2023-08-01T12:41:14;4.20;;;2.27;;
8803;SDS011;4438;50.890;4.726;2023-08-01T12:43:41;5.00;;;2.50;;
8803;SDS011;4438;50.890;4.726;2023-08-01T12:46:07;3.57;;;2.23;;
8803;SDS011;4438;50.890;4.726;2023-08-01T12:48:33;3.60;;;2.00;;
8803;SDS011;4438;50.890;4.726;2023-08-01T12:50:59;2.97;;;2.10;;
8803;SDS011;4438;50.890;4.726;2023-08-01T12:53:25;3.47;;;2.00;;
8803;SDS011;4438;50.890;4.726;2023-08-01T12:55:51;5.37;;;2.40;;
8803;SDS011;4438;50.890;4.726;2023-08-01T12:58:17;3.43;;;2.40;;
8803;SDS011;4438;50.890;4.726;2023-08-01T13:00:44;3.97;;;2.00;;
8803;SDS011;4438;50.890;4.726;2023-08-01T13:03:10;4.00;;;2.20;;
8803;SDS011;4438;50.890;4.726;2023-08-01T13:05:37;4.67;;;2.30;;
8803;SDS011;4438;50.890;4.726;2023-08-01T13:08:04;3.93;;;2.30;;
8803;SDS011;4438;50.890;4.726;2023-08-01T13:10:33;3.47;;;2.37;;
8803;SDS011;4438;50.890;4.726;2023-08-01T13:13:00;3.57;;;2.30;;
8803;SDS011;4438;50.890;4.726;2023-08-01T13:15:26;3.30;;;2.33;;
8803;SDS011;4438;50.890;4.726;2023-08-01T13:17:52;3.53;;;2.13;;
8803;SDS011;4438;50.890;4.726;2023-08-01T13:20:18;3.90;;;1.97;;
8803;SDS011;4438;50.890;4.726;2023-08-01T13:22:45;3.00;;;2.17;;
8803;SDS011;4438;50.890;4.726;2023-08-01T13:25:18;4.50;;;1.93;;
8803;SDS011;4438;50.890;4.726;2023-08-01T13:28:11;2.40;;;1.80;;
8803;SDS011;4438;50.890;4.726;2023-08-01T13:30:37;3.23;;;2.07;;
8803;SDS011;4438;50.890;4.726;2023-08-01T13:33:03;5.63;;;1.80;;
8803;SDS011;4438;50.890;4.726;2023-08-01T13:35:29;3.97;;;2.30;;
8803;SDS011;4438;50.890;4.726;2023-08-01T13:37:55;3.10;;;1.80;;
8803;SDS011;4438;50.890;4.726;2023-08-01T13:40:22;3.70;;;1.80;;
8803;SDS011;4438;50.890;4.726;2023-08-01T13:42:48;4.07;;;2.00;;
8803;SDS011;4438;50.890;4.726;2023-08-01T13:45:14;3.47;;;2.03;;
8803;SDS011;4438;50.890;4.726;2023-08-01T13:47:40;3.10;;;1.87;;
8803;SDS011;4438;50.890;4.726;2023-08-01T13:50:06;3.50;;;2.30;;
8803;SDS011;4438;50.890;4.726;2023-08-01T13:52:32;4.83;;;1.80;;
8803;SDS011;4438;50.890;4.726;2023-08-01T13:54:58;3.43;;;2.20;;
8803;SDS011;4438;50.890;4.726;2023-08-01T13:57:25;4.43;;;2.37;;
8803;SDS011;4438;50.890;4.726;2023-08-01T13:59:51;3.70;;;2.17;;
8803;SDS011;4438;50.890;4.726;2023-08-01T14:02:17;3.87;;;2.30;;
8803;SDS011;4438;50.890;4.726;2023-08-01T14:04:43;5.90;;;2.10;;
8803;SDS011;4438;50.890;4.726;2023-08-01T14:07:09;2.57;;;1.73;;
8803;SDS011;4438;50.890;4.726;2023-08-01T14:09:35;4.00;;;2.13;;
8803;SDS011;4438;50.890;4.726;2023-08-01T14:12:02;3.30;;;2.20;;
8803;SDS011;4438;50.890;4.726;2023-08-01T14:14:28;3.37;;;1.97;;
8803;SDS011;4438;50.890;4.726;2023-08-01T14:16:54;5.10;;;2.40;;
8803;SDS011;4438;50.890;4.726;2023-08-01T14:19:20;4.87;;;2.40;;
8803;SDS011;4438;50.890;4.726;2023-08-01T14:21:46;3.80;;;2.10;;
8803;SDS011;4438;50.890;4.726;2023-08-01T14:24:12;5.30;;;2.10;;
8803;SDS011;4438;50.890;4.726;2023-08-01T14:26:39;4.27;;;2.10;;
8803;SDS011;4438;50.890;4.726;2023-08-01T14:29:06;3.73;;;2.37;;
8803;SDS011;4438;50.890;4.726;2023-08-01T14:31:32;5.83;;;2.63;;
8803;SDS011;4438;50.890;4.726;2023-08-01T14:33:58;4.00;;;2.20;;
8803;SDS011;4438;50.890;4.726;2023-08-01T14:36:24;3.60;;;2.00;;
8803;SDS011;4438;50.890;4.726;2023-08-01T14:38:50;4.03;;;2.07;;
8803;SDS011;4438;50.890;4.726;2023-08-01T14:41:19;4.07;;;2.20;;
8803;SDS011;4438;50.890;4.726;2023-08-01T14:43:45;3.70;;;2.10;;
8803;SDS011;4438;50.890;4.726;2023-08-01T14:46:11;4.50;;;2.37;;
8803;SDS011;4438;50.890;4.726;2023-08-01T14:48:37;3.10;;;2.00;;
8803;SDS011;4438;50.890;4.726;2023-08-01T14:51:05;3.97;;;2.03;;
8803;SDS011;4438;50.890;4.726;2023-08-01T14:53:31;3.20;;;2.30;;
8803;SDS011;4438;50.890;4.726;2023-08-01T14:55:58;3.90;;;2.30;;
8803;SDS011;4438;50.890;4.726;2023-08-01T14:58:30;4.50;;;2.27;;
8803;SDS011;4438;50.890;4.726;2023-08-01T15:00:56;3.10;;;2.13;;
8803;SDS011;4438;50.890;4.726;2023-08-01T15:03:22;3.73;;;2.40;;
8803;SDS011;4438;50.890;4.726;2023-08-01T15:05:48;5.53;;;2.70;;
8803;SDS011;4438;50.890;4.726;2023-08-01T15:08:14;3.60;;;2.30;;
8803;SDS011;4438;50.890;4.726;2023-08-01T15:10:41;3.23;;;2.30;;
8803;SDS011;4438;50.890;4.726;2023-08-01T15:13:07;3.27;;;2.17;;
8803;SDS011;4438;50.890;4.726;2023-08-01T15:15:36;3.07;;;2.23;;
8803;SDS011;4438;50.890;4.726;2023-08-01T15:18:03;5.17;;;2.00;;